Погода Кивайнына 2 недели

Варминско-Мазурское воеводство, Польша

19 - 31 мая
  • 19мая
    Сегодня
    +10°
    +23°
    Практически безоблачно
    ВремяПогодаТемператураВлажностьДавлениеВетер, м/сВероятность осадков
    02:00Ясно и безоблачно+11°C72 %749 мм2.4 м/с2 %
    05:00Ясно и безоблачно+9°C74 %749 мм2.3 м/с2 %
    08:00Ясно и безоблачно+18°C62 %749 мм1.6 м/с2 %
    11:00Ясно и безоблачно+22°C39 %749 мм4.6 м/с2 %
    14:00Практически безоблачно+23°C38 %748 мм4.6 м/с2 %
    17:00Небольшая облачность+22°C41 %747 мм3.2 м/с10 %
    20:00Облачно с прояснениями+18°C68 %747 мм0.7 м/с15 %
    23:00Небольшая облачность+13°C81 %748 мм2.3 м/с8 %
  • 20мая
    Понедельник
    +10°
    +23°
    Небольшая облачность и лёгкий дождик
    ВремяПогодаТемператураВлажностьДавлениеВетер, м/сВероятность осадков
    02:00Облачно с прояснениями+12°C82 %747 мм2.1 м/с5 %
    05:00Облачно с прояснениями+11°C91 %748 мм1.4 м/с27 %
    08:00Облачно с прояснениями+17°C81 %749 мм1.5 м/с35 %
    11:00Пасмурно, ливень+19°C74 %749 мм1.5 м/с48 %
    14:00Небольшая облачность и лёгкий дождик+22°C53 %749 мм3.2 м/с49 %
    17:00Облачно с прояснениями+21°C55 %749 мм2.4 м/с47 %
    20:00Практически безоблачно+19°C61 %749 мм2.4 м/с21 %
    23:00Ясно и безоблачно+14°C74 %750 мм2.7 м/с4 %
  • 21мая
    Вторник
    +11°
    +24°
    Практически безоблачно
    ВремяПогодаТемператураВлажностьДавлениеВетер, м/сВероятность осадков
    02:00Ясно и безоблачно+12°C89 %750 мм1.9 м/с2 %
    05:00Практически безоблачно+11°C92 %750 мм2.5 м/с3 %
    08:00Ясно и безоблачно+17°C77 %751 мм2.6 м/с2 %
    11:00Практически безоблачно+23°C58 %751 мм4.1 м/с10 %
    14:00Практически безоблачно+24°C50 %750 мм4.1 м/с25 %
    17:00Небольшая облачность+22°C59 %750 мм3.5 м/с37 %
    20:00Практически безоблачно+20°C61 %749 мм3.7 м/с16 %
    23:00Ясно и безоблачно+15°C78 %749 мм4.0 м/с2 %
  • 22мая
    Среда
    +12°
    +24°
    Ясно и безоблачно
    ВремяПогодаТемператураВлажностьДавлениеВетер, м/сВероятность осадков
    02:00Ясно и безоблачно+13°C88 %749 мм3.7 м/с2 %
    05:00Ясно и безоблачно+12°C95 %749 мм4.1 м/с2 %
    08:00Облачно с прояснениями+17°C79 %749 мм6.0 м/с2 %
    11:00Практически безоблачно+22°C61 %749 мм6.1 м/с20 %
    14:00Ясно и безоблачно+25°C54 %748 мм6.0 м/с28 %
    17:00Облачно с прояснениями+24°C55 %747 мм5.8 м/с35 %
    20:00Ясно и безоблачно+21°C68 %747 мм5.5 м/с16 %
    23:00Ясно и безоблачно+16°C79 %748 мм5.0 м/с9 %
Мы используем cookies
Соглашаюсь